sensor_id;sensor_type;location;lat;lon;timestamp;temperature;humidity
64937;SHT30;51452;47.698;19.050;2023-07-08T00:01:19;21.58;50.12
64937;SHT30;51452;47.698;19.050;2023-07-08T00:04:04;21.33;47.95
64937;SHT30;51452;47.698;19.050;2023-07-08T00:06:35;21.30;49.28
64937;SHT30;51452;47.698;19.050;2023-07-08T00:09:10;21.41;51.58
64937;SHT30;51452;47.698;19.050;2023-07-08T00:11:36;21.50;51.67
64937;SHT30;51452;47.698;19.050;2023-07-08T00:14:04;21.41;51.97
64937;SHT30;51452;47.698;19.050;2023-07-08T00:16:34;21.40;52.41
64937;SHT30;51452;47.698;19.050;2023-07-08T00:19:08;21.31;52.38
64937;SHT30;51452;47.698;19.050;2023-07-08T00:21:40;21.33;50.76
64937;SHT30;51452;47.698;19.050;2023-07-08T00:24:12;21.30;50.68
64937;SHT30;51452;47.698;19.050;2023-07-08T00:26:41;21.19;48.54
64937;SHT30;51452;47.698;19.050;2023-07-08T00:29:11;21.19;49.80
64937;SHT30;51452;47.698;19.050;2023-07-08T00:31:37;21.33;51.13
64937;SHT30;51452;47.698;19.050;2023-07-08T00:34:17;21.37;51.73
64937;SHT30;51452;47.698;19.050;2023-07-08T00:36:49;21.37;52.02
64937;SHT30;51452;47.698;19.050;2023-07-08T00:39:15;21.36;51.47
64937;SHT30;51452;47.698;19.050;2023-07-08T00:42:19;21.27;50.89
64937;SHT30;51452;47.698;19.050;2023-07-08T00:44:49;21.33;51.00
64937;SHT30;51452;47.698;19.050;2023-07-08T00:47:15;21.23;49.50
64937;SHT30;51452;47.698;19.050;2023-07-08T00:49:43;21.27;50.20
64937;SHT30;51452;47.698;19.050;2023-07-08T00:52:26;21.26;49.43
64937;SHT30;51452;47.698;19.050;2023-07-08T00:55:23;21.23;49.34
64937;SHT30;51452;47.698;19.050;2023-07-08T00:57:46;21.22;49.90
64937;SHT30;51452;47.698;19.050;2023-07-08T01:00:16;21.26;51.67
64937;SHT30;51452;47.698;19.050;2023-07-08T01:02:50;21.24;51.22
64937;SHT30;51452;47.698;19.050;2023-07-08T01:05:36;21.24;51.29
64937;SHT30;51452;47.698;19.050;2023-07-08T01:08:26;21.08;48.55
64937;SHT30;51452;47.698;19.050;2023-07-08T01:11:06;21.07;48.84
64937;SHT30;51452;47.698;19.050;2023-07-08T01:13:37;21.19;51.90
64937;SHT30;51452;47.698;19.050;2023-07-08T01:16:21;21.10;53.50
64937;SHT30;51452;47.698;19.050;2023-07-08T01:18:47;21.03;53.99
64937;SHT30;51452;47.698;19.050;2023-07-08T01:27:35;20.73;54.14
64937;SHT30;51452;47.698;19.050;2023-07-08T01:30:04;20.69;54.60
64937;SHT30;51452;47.698;19.050;2023-07-08T01:33:03;20.56;54.59
64937;SHT30;51452;47.698;19.050;2023-07-08T01:39:19;20.34;55.72
64937;SHT30;51452;47.698;19.050;2023-07-08T01:41:46;20.34;55.46
64937;SHT30;51452;47.698;19.050;2023-07-08T01:44:36;20.34;55.39
64937;SHT30;51452;47.698;19.050;2023-07-08T01:47:14;20.29;55.13
64937;SHT30;51452;47.698;19.050;2023-07-08T01:49:41;20.31;55.60
64937;SHT30;51452;47.698;19.050;2023-07-08T01:52:12;20.31;55.82
64937;SHT30;51452;47.698;19.050;2023-07-08T01:54:40;20.29;56.04
64937;SHT30;51452;47.698;19.050;2023-07-08T01:57:06;20.29;56.88
64937;SHT30;51452;47.698;19.050;2023-07-08T02:02:00;20.34;55.20
64937;SHT30;51452;47.698;19.050;2023-07-08T02:04:26;20.35;55.09
64937;SHT30;51452;47.698;19.050;2023-07-08T02:07:01;20.36;53.59
64937;SHT30;51452;47.698;19.050;2023-07-08T02:09:35;20.38;55.20
64937;SHT30;51452;47.698;19.050;2023-07-08T02:12:06;20.39;55.41
64937;SHT30;51452;47.698;19.050;2023-07-08T02:14:48;20.32;56.36
64937;SHT30;51452;47.698;19.050;2023-07-08T02:17:39;20.29;55.86
64937;SHT30;51452;47.698;19.050;2023-07-08T02:20:31;20.28;56.21
64937;SHT30;51452;47.698;19.050;2023-07-08T02:23:00;20.24;57.04
64937;SHT30;51452;47.698;19.050;2023-07-08T02:25:26;20.24;58.79
64937;SHT30;51452;47.698;19.050;2023-07-08T02:28:00;20.10;59.29
64937;SHT30;51452;47.698;19.050;2023-07-08T02:30:34;19.96;54.32
64937;SHT30;51452;47.698;19.050;2023-07-08T02:33:03;19.94;59.56
64937;SHT30;51452;47.698;19.050;2023-07-08T02:35:30;19.88;59.83
64937;SHT30;51452;47.698;19.050;2023-07-08T02:37:59;19.81;60.58
64937;SHT30;51452;47.698;19.050;2023-07-08T02:40:28;19.78;60.73
64937;SHT30;51452;47.698;19.050;2023-07-08T02:43:21;19.62;61.45
64937;SHT30;51452;47.698;19.050;2023-07-08T02:46:33;19.52;60.91
64937;SHT30;51452;47.698;19.050;2023-07-08T02:49:22;19.46;60.93
64937;SHT30;51452;47.698;19.050;2023-07-08T02:52:06;19.36;61.43
64937;SHT30;51452;47.698;19.050;2023-07-08T02:54:37;19.35;61.87
64937;SHT30;51452;47.698;19.050;2023-07-08T02:57:05;19.35;61.95
64937;SHT30;51452;47.698;19.050;2023-07-08T02:59:31;19.37;62.16
64937;SHT30;51452;47.698;19.050;2023-07-08T03:01:58;19.36;62.36
64937;SHT30;51452;47.698;19.050;2023-07-08T03:04:23;19.37;64.09
64937;SHT30;51452;47.698;19.050;2023-07-08T03:09:57;19.36;65.14
64937;SHT30;51452;47.698;19.050;2023-07-08T03:12:23;19.33;65.61
64937;SHT30;51452;47.698;19.050;2023-07-08T03:14:48;19.32;66.46
64937;SHT30;51452;47.698;19.050;2023-07-08T03:17:32;19.27;66.23
64937;SHT30;51452;47.698;19.050;2023-07-08T03:20:01;19.29;65.76
64937;SHT30;51452;47.698;19.050;2023-07-08T03:22:35;19.27;66.01
64937;SHT30;51452;47.698;19.050;2023-07-08T03:25:10;19.25;66.10
64937;SHT30;51452;47.698;19.050;2023-07-08T03:27:36;19.25;66.29
64937;SHT30;51452;47.698;19.050;2023-07-08T03:30:04;19.25;65.91
64937;SHT30;51452;47.698;19.050;2023-07-08T03:32:40;19.19;66.80
64937;SHT30;51452;47.698;19.050;2023-07-08T03:35:09;19.22;66.27
64937;SHT30;51452;47.698;19.050;2023-07-08T03:37:35;19.22;66.41
64937;SHT30;51452;47.698;19.050;2023-07-08T03:40:08;19.22;66.09
64937;SHT30;51452;47.698;19.050;2023-07-08T03:42:39;19.29;66.52
64937;SHT30;51452;47.698;19.050;2023-07-08T03:45:11;19.33;66.81
64937;SHT30;51452;47.698;19.050;2023-07-08T03:47:37;19.40;67.01
64937;SHT30;51452;47.698;19.050;2023-07-08T03:50:03;19.45;67.21
64937;SHT30;51452;47.698;19.050;2023-07-08T03:52:28;19.50;67.37
64937;SHT30;51452;47.698;19.050;2023-07-08T03:55:16;19.57;67.38
64937;SHT30;51452;47.698;19.050;2023-07-08T03:57:40;19.60;67.58
64937;SHT30;51452;47.698;19.050;2023-07-08T04:00:17;19.66;67.65
64937;SHT30;51452;47.698;19.050;2023-07-08T04:02:44;19.70;68.21
64937;SHT30;51452;47.698;19.050;2023-07-08T04:05:18;19.74;68.37
64937;SHT30;51452;47.698;19.050;2023-07-08T04:07:50;19.87;68.47
64937;SHT30;51452;47.698;19.050;2023-07-08T04:10:16;19.94;68.63
64937;SHT30;51452;47.698;19.050;2023-07-08T04:12:45;20.01;69.04
64937;SHT30;51452;47.698;19.050;2023-07-08T04:15:11;20.04;69.12
64937;SHT30;51452;47.698;19.050;2023-07-08T04:17:53;20.05;69.50
64937;SHT30;51452;47.698;19.050;2023-07-08T04:22:59;20.11;69.72
64937;SHT30;51452;47.698;19.050;2023-07-08T04:25:24;20.11;69.63
64937;SHT30;51452;47.698;19.050;2023-07-08T04:27:50;20.17;68.51
64937;SHT30;51452;47.698;19.050;2023-07-08T04:30:26;20.13;66.69
64937;SHT30;51452;47.698;19.050;2023-07-08T04:32:54;20.20;67.20
64937;SHT30;51452;47.698;19.050;2023-07-08T04:35:21;20.20;68.96
64937;SHT30;51452;47.698;19.050;2023-07-08T04:40:53;20.34;70.24
64937;SHT30;51452;47.698;19.050;2023-07-08T04:43:20;20.39;70.68
64937;SHT30;51452;47.698;19.050;2023-07-08T04:46:00;20.49;69.76
64937;SHT30;51452;47.698;19.050;2023-07-08T04:48:25;20.52;66.14
64937;SHT30;51452;47.698;19.050;2023-07-08T04:50:53;20.61;65.24
64937;SHT30;51452;47.698;19.050;2023-07-08T04:53:23;20.62;63.88
64937;SHT30;51452;47.698;19.050;2023-07-08T04:56:02;20.75;64.83
64937;SHT30;51452;47.698;19.050;2023-07-08T04:58:31;20.80;66.71
64937;SHT30;51452;47.698;19.050;2023-07-08T05:01:23;20.83;67.00
64937;SHT30;51452;47.698;19.050;2023-07-08T05:04:23;20.83;68.53
64937;SHT30;51452;47.698;19.050;2023-07-08T05:06:49;20.89;67.76
64937;SHT30;51452;47.698;19.050;2023-07-08T05:09:15;21.00;66.59
64937;SHT30;51452;47.698;19.050;2023-07-08T05:12:03;21.04;66.91
64937;SHT30;51452;47.698;19.050;2023-07-08T05:14:47;21.06;67.75
64937;SHT30;51452;47.698;19.050;2023-07-08T05:17:22;21.07;65.07
64937;SHT30;51452;47.698;19.050;2023-07-08T05:19:47;21.10;65.37
64937;SHT30;51452;47.698;19.050;2023-07-08T05:22:33;21.03;64.28
64937;SHT30;51452;47.698;19.050;2023-07-08T05:25:00;21.19;63.90
64937;SHT30;51452;47.698;19.050;2023-07-08T05:27:31;21.36;66.06
64937;SHT30;51452;47.698;19.050;2023-07-08T05:30:11;21.48;63.79
64937;SHT30;51452;47.698;19.050;2023-07-08T05:33:12;21.59;62.08
64937;SHT30;51452;47.698;19.050;2023-07-08T05:42:33;21.96;60.13
64937;SHT30;51452;47.698;19.050;2023-07-08T05:45:12;22.02;60.05
64937;SHT30;51452;47.698;19.050;2023-07-08T05:51:51;22.20;59.43
64937;SHT30;51452;47.698;19.050;2023-07-08T05:58:09;22.36;59.28
64937;SHT30;51452;47.698;19.050;2023-07-08T06:01:00;22.50;58.01
64937;SHT30;51452;47.698;19.050;2023-07-08T06:03:27;22.67;58.77
64937;SHT30;51452;47.698;19.050;2023-07-08T06:06:21;22.81;59.48
64937;SHT30;51452;47.698;19.050;2023-07-08T06:09:13;22.86;58.49
64937;SHT30;51452;47.698;19.050;2023-07-08T06:14:41;22.81;56.08
64937;SHT30;51452;47.698;19.050;2023-07-08T06:17:17;22.77;58.69
64937;SHT30;51452;47.698;19.050;2023-07-08T06:19:49;22.76;57.19
64937;SHT30;51452;47.698;19.050;2023-07-08T06:22:16;22.91;55.31
64937;SHT30;51452;47.698;19.050;2023-07-08T06:24:49;22.87;56.39
64937;SHT30;51452;47.698;19.050;2023-07-08T06:27:29;22.86;55.79
64937;SHT30;51452;47.698;19.050;2023-07-08T06:32:59;22.94;59.88
64937;SHT30;51452;47.698;19.050;2023-07-08T06:36:09;22.97;63.38
64937;SHT30;51452;47.698;19.050;2023-07-08T06:39:15;22.97;61.84
64937;SHT30;51452;47.698;19.050;2023-07-08T06:41:40;23.04;57.57
64937;SHT30;51452;47.698;19.050;2023-07-08T06:44:25;23.03;55.63
64937;SHT30;51452;47.698;19.050;2023-07-08T06:47:39;23.08;56.88
64937;SHT30;51452;47.698;19.050;2023-07-08T06:50:41;23.01;57.71
64937;SHT30;51452;47.698;19.050;2023-07-08T06:53:59;23.18;55.64
64937;SHT30;51452;47.698;19.050;2023-07-08T06:56:51;23.34;53.31
64937;SHT30;51452;47.698;19.050;2023-07-08T07:02:57;23.65;53.76
64937;SHT30;51452;47.698;19.050;2023-07-08T07:13:30;24.13;50.08
64937;SHT30;51452;47.698;19.050;2023-07-08T07:15:58;24.20;49.64
64937;SHT30;51452;47.698;19.050;2023-07-08T07:19:06;24.26;49.58
64937;SHT30;51452;47.698;19.050;2023-07-08T07:24:14;24.31;50.68
64937;SHT30;51452;47.698;19.050;2023-07-08T07:26:51;24.38;48.83
64937;SHT30;51452;47.698;19.050;2023-07-08T07:33:13;24.60;51.89
64937;SHT30;51452;47.698;19.050;2023-07-08T07:36:19;24.61;48.98
64937;SHT30;51452;47.698;19.050;2023-07-08T07:39:38;24.67;46.71
64937;SHT30;51452;47.698;19.050;2023-07-08T07:42:08;24.82;47.89
64937;SHT30;51452;47.698;19.050;2023-07-08T07:55:12;25.06;42.84
64937;SHT30;51452;47.698;19.050;2023-07-08T08:35:35;25.46;42.86
64937;SHT30;51452;47.698;19.050;2023-07-08T08:41:50;25.49;41.72
64937;SHT30;51452;47.698;19.050;2023-07-08T08:44:43;25.60;42.68
64937;SHT30;51452;47.698;19.050;2023-07-08T09:08:46;25.90;41.89
64937;SHT30;51452;47.698;19.050;2023-07-08T09:15:20;25.95;42.04
64937;SHT30;51452;47.698;19.050;2023-07-08T09:21:59;25.95;39.92
64937;SHT30;51452;47.698;19.050;2023-07-08T09:28:51;26.08;38.70
64937;SHT30;51452;47.698;19.050;2023-07-08T09:38:23;26.38;40.41
64937;SHT30;51452;47.698;19.050;2023-07-08T09:40:51;26.44;40.30
64937;SHT30;51452;47.698;19.050;2023-07-08T10:08:21;26.95;38.92
64937;SHT30;51452;47.698;19.050;2023-07-08T10:31:35;27.68;39.85
64937;SHT30;51452;47.698;19.050;2023-07-08T10:57:30;26.69;40.16
64937;SHT30;51452;47.698;19.050;2023-07-08T11:00:38;26.66;41.85
64937;SHT30;51452;47.698;19.050;2023-07-08T11:03:33;26.56;39.57
64937;SHT30;51452;47.698;19.050;2023-07-08T11:06:37;26.72;41.91
64937;SHT30;51452;47.698;19.050;2023-07-08T11:09:12;26.85;40.44
64937;SHT30;51452;47.698;19.050;2023-07-08T11:12:17;27.06;39.18
64937;SHT30;51452;47.698;19.050;2023-07-08T11:15:23;27.26;40.51
64937;SHT30;51452;47.698;19.050;2023-07-08T11:28:02;27.53;38.52
64937;SHT30;51452;47.698;19.050;2023-07-08T11:37:07;27.24;39.01
64937;SHT30;51452;47.698;19.050;2023-07-08T11:47:37;27.11;38.43
64937;SHT30;51452;47.698;19.050;2023-07-08T11:50:59;27.20;39.60
64937;SHT30;51452;47.698;19.050;2023-07-08T11:57:15;27.50;39.86
64937;SHT30;51452;47.698;19.050;2023-07-08T14:28:50;28.90;37.14
64937;SHT30;51452;47.698;19.050;2023-07-08T14:31:43;28.84;37.04
64937;SHT30;51452;47.698;19.050;2023-07-08T14:37:32;28.86;36.48
64937;SHT30;51452;47.698;19.050;2023-07-08T14:53:16;28.87;35.02
64937;SHT30;51452;47.698;19.050;2023-07-08T14:55:43;28.80;36.06
64937;SHT30;51452;47.698;19.050;2023-07-08T14:58:21;28.76;34.64
64937;SHT30;51452;47.698;19.050;2023-07-08T15:00:47;28.83;34.76
64937;SHT30;51452;47.698;19.050;2023-07-08T15:03:16;28.81;37.19
64937;SHT30;51452;47.698;19.050;2023-07-08T15:05:42;28.74;34.18
64937;SHT30;51452;47.698;19.050;2023-07-08T15:08:08;28.68;36.07
64937;SHT30;51452;47.698;19.050;2023-07-08T15:10:36;28.59;36.94
64937;SHT30;51452;47.698;19.050;2023-07-08T15:13:16;28.70;36.74
64937;SHT30;51452;47.698;19.050;2023-07-08T15:15:43;28.74;36.64
64937;SHT30;51452;47.698;19.050;2023-07-08T15:18:12;28.81;35.24
64937;SHT30;51452;47.698;19.050;2023-07-08T15:20:38;28.83;36.92
64937;SHT30;51452;47.698;19.050;2023-07-08T15:23:12;28.91;36.27
64937;SHT30;51452;47.698;19.050;2023-07-08T15:25:49;28.95;35.71
64937;SHT30;51452;47.698;19.050;2023-07-08T15:28:20;28.88;36.25
64937;SHT30;51452;47.698;19.050;2023-07-08T15:30:50;28.84;34.86
64937;SHT30;51452;47.698;19.050;2023-07-08T15:33:26;28.76;35.89
64937;SHT30;51452;47.698;19.050;2023-07-08T15:36:00;28.73;36.81
64937;SHT30;51452;47.698;19.050;2023-07-08T19:05:45;24.43;48.30
64937;SHT30;51452;47.698;19.050;2023-07-08T19:08:37;24.37;48.08
64937;SHT30;51452;47.698;19.050;2023-07-08T19:16:14;24.36;47.12
64937;SHT30;51452;47.698;19.050;2023-07-08T19:18:47;24.31;47.22
64937;SHT30;51452;47.698;19.050;2023-07-08T19:21:36;24.26;47.71
64937;SHT30;51452;47.698;19.050;2023-07-08T19:24:03;24.20;48.22
64937;SHT30;51452;47.698;19.050;2023-07-08T19:26:45;24.14;49.29
64937;SHT30;51452;47.698;19.050;2023-07-08T19:29:15;24.07;49.36
64937;SHT30;51452;47.698;19.050;2023-07-08T19:34:26;23.93;49.24
64937;SHT30;51452;47.698;19.050;2023-07-08T19:36:55;23.90;49.34
64937;SHT30;51452;47.698;19.050;2023-07-08T19:39:43;23.86;49.53
64937;SHT30;51452;47.698;19.050;2023-07-08T19:42:49;23.85;49.40
64937;SHT30;51452;47.698;19.050;2023-07-08T19:52:19;23.73;49.01
64937;SHT30;51452;47.698;19.050;2023-07-08T19:58:02;23.70;48.83
64937;SHT30;51452;47.698;19.050;2023-07-08T20:04:12;23.65;48.38
64937;SHT30;51452;47.698;19.050;2023-07-08T20:07:08;23.63;48.26
64937;SHT30;51452;47.698;19.050;2023-07-08T20:09:39;23.67;48.54
64937;SHT30;51452;47.698;19.050;2023-07-08T20:15:27;23.61;49.67
64937;SHT30;51452;47.698;19.050;2023-07-08T20:18:38;23.51;49.72
64937;SHT30;51452;47.698;19.050;2023-07-08T20:21:29;23.51;49.58
64937;SHT30;51452;47.698;19.050;2023-07-08T20:27:40;23.35;50.00
64937;SHT30;51452;47.698;19.050;2023-07-08T20:33:40;23.22;46.47
64937;SHT30;51452;47.698;19.050;2023-07-08T20:36:21;23.32;49.32
64937;SHT30;51452;47.698;19.050;2023-07-08T20:38:51;23.38;50.08
64937;SHT30;51452;47.698;19.050;2023-07-08T20:41:43;23.32;50.61
64937;SHT30;51452;47.698;19.050;2023-07-08T20:44:52;23.27;50.35
64937;SHT30;51452;47.698;19.050;2023-07-08T20:47:18;23.28;50.98
64937;SHT30;51452;47.698;19.050;2023-07-08T20:49:46;23.21;51.13
64937;SHT30;51452;47.698;19.050;2023-07-08T20:52:25;23.07;51.09
64937;SHT30;51452;47.698;19.050;2023-07-08T20:58:41;22.98;52.52
64937;SHT30;51452;47.698;19.050;2023-07-08T21:01:13;22.94;52.42
64937;SHT30;51452;47.698;19.050;2023-07-08T21:16:28;22.80;51.26
64937;SHT30;51452;47.698;19.050;2023-07-08T21:19:18;22.77;51.15
64937;SHT30;51452;47.698;19.050;2023-07-08T21:21:44;22.80;51.47
64937;SHT30;51452;47.698;19.050;2023-07-08T21:24:41;22.81;51.71
64937;SHT30;51452;47.698;19.050;2023-07-08T21:27:27;22.80;51.78
64937;SHT30;51452;47.698;19.050;2023-07-08T21:30:15;22.80;51.39
64937;SHT30;51452;47.698;19.050;2023-07-08T21:33:07;22.81;51.40
64937;SHT30;51452;47.698;19.050;2023-07-08T21:38:47;22.80;51.33
64937;SHT30;51452;47.698;19.050;2023-07-08T21:41:15;22.73;51.77
64937;SHT30;51452;47.698;19.050;2023-07-08T21:43:41;22.74;52.17
64937;SHT30;51452;47.698;19.050;2023-07-08T21:46:15;22.73;51.98
64937;SHT30;51452;47.698;19.050;2023-07-08T21:49:24;22.67;52.15
64937;SHT30;51452;47.698;19.050;2023-07-08T21:51:55;22.67;51.31
64937;SHT30;51452;47.698;19.050;2023-07-08T21:54:23;22.68;51.53
64937;SHT30;51452;47.698;19.050;2023-07-08T21:57:17;22.70;51.55
64937;SHT30;51452;47.698;19.050;2023-07-08T21:59:43;22.68;51.69
64937;SHT30;51452;47.698;19.050;2023-07-08T22:02:18;22.66;50.10
64937;SHT30;51452;47.698;19.050;2023-07-08T22:08:42;22.64;51.23
64937;SHT30;51452;47.698;19.050;2023-07-08T22:11:26;22.61;51.60
64937;SHT30;51452;47.698;19.050;2023-07-08T22:14:01;22.67;51.33
64937;SHT30;51452;47.698;19.050;2023-07-08T22:16:46;22.66;51.98
64937;SHT30;51452;47.698;19.050;2023-07-08T22:19:44;22.63;52.34
64937;SHT30;51452;47.698;19.050;2023-07-08T22:22:28;22.61;52.45
64937;SHT30;51452;47.698;19.050;2023-07-08T22:25:04;22.59;52.00
64937;SHT30;51452;47.698;19.050;2023-07-08T22:27:38;22.59;51.51
64937;SHT30;51452;47.698;19.050;2023-07-08T22:30:06;22.63;52.47
64937;SHT30;51452;47.698;19.050;2023-07-08T22:35:18;22.50;53.73
64937;SHT30;51452;47.698;19.050;2023-07-08T22:38:16;22.42;53.72
64937;SHT30;51452;47.698;19.050;2023-07-08T22:41:13;22.30;53.99
64937;SHT30;51452;47.698;19.050;2023-07-08T22:43:48;22.22;55.00
64937;SHT30;51452;47.698;19.050;2023-07-08T22:46:20;22.13;54.79
64937;SHT30;51452;47.698;19.050;2023-07-08T22:49:22;21.99;54.98
64937;SHT30;51452;47.698;19.050;2023-07-08T22:52:21;21.91;55.63
64937;SHT30;51452;47.698;19.050;2023-07-08T22:55:16;21.78;55.38
64937;SHT30;51452;47.698;19.050;2023-07-08T22:57:45;21.74;55.28
64937;SHT30;51452;47.698;19.050;2023-07-08T23:00:40;21.71;56.03
64937;SHT30;51452;47.698;19.050;2023-07-08T23:03:06;21.67;56.41
64937;SHT30;51452;47.698;19.050;2023-07-08T23:05:42;21.54;56.37
64937;SHT30;51452;47.698;19.050;2023-07-08T23:08:16;21.47;55.88
64937;SHT30;51452;47.698;19.050;2023-07-08T23:10:43;21.48;56.38
64937;SHT30;51452;47.698;19.050;2023-07-08T23:13:19;21.44;56.40
64937;SHT30;51452;47.698;19.050;2023-07-08T23:15:46;21.46;56.63
64937;SHT30;51452;47.698;19.050;2023-07-08T23:18:18;21.46;57.10
64937;SHT30;51452;47.698;19.050;2023-07-08T23:20:47;21.46;56.11
64937;SHT30;51452;47.698;19.050;2023-07-08T23:23:13;21.57;55.54
64937;SHT30;51452;47.698;19.050;2023-07-08T23:25:40;21.67;55.21
64937;SHT30;51452;47.698;19.050;2023-07-08T23:28:09;21.74;55.71
64937;SHT30;51452;47.698;19.050;2023-07-08T23:30:36;21.77;54.89
64937;SHT30;51452;47.698;19.050;2023-07-08T23:36:31;21.94;54.50
64937;SHT30;51452;47.698;19.050;2023-07-08T23:39:14;21.92;54.74
64937;SHT30;51452;47.698;19.050;2023-07-08T23:41:41;21.94;54.22
64937;SHT30;51452;47.698;19.050;2023-07-08T23:44:13;21.94;54.53
64937;SHT30;51452;47.698;19.050;2023-07-08T23:46:44;21.85;55.24
64937;SHT30;51452;47.698;19.050;2023-07-08T23:49:35;21.84;55.75
64937;SHT30;51452;47.698;19.050;2023-07-08T23:52:29;21.75;56.13
64937;SHT30;51452;47.698;19.050;2023-07-08T23:57:49;21.67;56.62
